Terminal Aerodrome Forecast
Issued by NWS

Home | Current Version | Previous Version | Graphics & Text | Print | Product List | Glossary On
Versions: 1 2 3 4 5 6 7 8 9 10 11 12 13 14 15 16 17 18 19 20
000
FTUS45 KGGW 201000 AAC
TAFSDY
TAF AMD
KSDY 201021Z 2010/2106 VRB03KT 4SM BR BKN060
     FM201500 24008KT 6SM BR VCSH BKN020
     FM201700 25008KT P6SM SCT040 SCT250
     FM210200 VRB05KT P6SM SCT200
      AMD LTD TO CLD VIS AND WIND=

USA.gov is the U.S. government's official web portal to all federal, state and local government web resources and services.